Time;durP1;ratioP1;P1;durP2;ratioP2;P2;SDS_P1;SDS_P2;PMS_P1;PMS_P2;Temp;Humidity;BMP_temperature;BMP_pressure;BME280_temperature;BME280_humidity;BME280_pressure;Samples;Min_cycle;Max_cycle;Signal;HPM_P1;HPM_P2
2023/01/26 00:02:11;;;;;;;53.95;37.40;;;3.00;99.90;;;;;;5094567;28;20024;-66
2023/01/26 00:04:37;;;;;;;37.38;28.52;;;3.10;99.90;;;;;;5094547;28;20107;-65
2023/01/26 00:07:03;;;;;;;37.63;27.75;;;3.10;99.90;;;;;;5094286;28;20024;-65
2023/01/26 00:09:28;;;;;;;37.30;28.52;;;3.10;99.90;;;;;;5093846;28;20521;-66
2023/01/26 00:11:55;;;;;;;44.30;30.75;;;3.00;99.90;;;;;;5094272;28;20047;-65
2023/01/26 00:14:21;;;;;;;40.50;28.85;;;3.10;99.90;;;;;;5094576;28;20034;-65
2023/01/26 00:16:47;;;;;;;37.13;27.33;;;3.10;99.90;;;;;;5094181;28;20054;-65
2023/01/26 00:19:12;;;;;;;33.13;23.70;;;3.10;99.90;;;;;;5094014;28;20476;-65
2023/01/26 00:21:38;;;;;;;31.33;23.58;;;3.10;99.90;;;;;;5093779;28;20036;-65
2023/01/26 00:24:04;;;;;;;31.98;24.73;;;3.10;99.90;;;;;;5094154;28;20416;-65
2023/01/26 00:26:30;;;;;;;34.10;24.67;;;3.10;99.90;;;;;;5094115;28;20107;-65
2023/01/26 00:28:55;;;;;;;32.50;25.98;;;3.10;99.90;;;;;;5093862;28;20554;-65
2023/01/26 00:31:24;;;;;;;34.80;27.05;;;3.10;99.90;;;;;;5093837;28;20073;-66
2023/01/26 00:33:51;;;;;;;33.92;26.98;;;3.10;99.90;;;;;;5094035;28;20024;-65
2023/01/26 00:36:17;;;;;;;36.20;27.45;;;3.10;99.90;;;;;;5093908;28;20024;-65
2023/01/26 00:38:43;;;;;;;36.28;27.55;;;3.10;99.90;;;;;;5093338;28;20157;-66
2023/01/26 00:42:05;;;;;;;32.90;24.60;;;3.00;99.90;;;;;;5093850;28;20127;-65
2023/01/26 00:43:58;;;;;;;28.35;22.17;;;3.00;99.90;;;;;;5093410;28;20383;-66
2023/01/26 00:46:24;;;;;;;29.73;23.08;;;3.10;99.90;;;;;;5094068;28;20035;-65
2023/01/26 00:48:50;;;;;;;27.45;21.45;;;3.10;99.90;;;;;;5093601;28;20020;-65
2023/01/26 00:51:15;;;;;;;27.33;21.23;;;3.00;99.90;;;;;;5093566;28;20093;-65
2023/01/26 00:53:41;;;;;;;27.17;19.85;;;3.10;99.90;;;;;;5093385;28;20024;-65
2023/01/26 00:56:07;;;;;;;27.95;23.48;;;3.00;99.90;;;;;;5093737;28;20024;-65
2023/01/26 00:58:33;;;;;;;30.27;24.88;;;3.00;99.90;;;;;;5093334;28;20028;-66
2023/01/26 01:00:58;;;;;;;31.65;24.52;;;3.00;99.90;;;;;;5093413;28;20032;-65
2023/01/26 01:03:24;;;;;;;30.10;23.02;;;2.90;99.90;;;;;;5093228;28;20051;-66
2023/01/26 01:05:50;;;;;;;30.23;23.17;;;3.00;99.90;;;;;;5093408;28;20032;-65
2023/01/26 01:08:16;;;;;;;27.30;20.77;;;2.90;99.90;;;;;;5092967;28;20492;-66
2023/01/26 01:10:42;;;;;;;29.67;22.00;;;3.00;99.90;;;;;;5093042;28;20055;-66
2023/01/26 01:13:07;;;;;;;30.83;22.48;;;2.90;99.90;;;;;;5093337;28;20083;-66
2023/01/26 01:15:33;;;;;;;27.55;20.15;;;2.90;99.90;;;;;;5093051;28;20028;-66
2023/01/26 01:17:59;;;;;;;28.10;21.00;;;2.90;99.90;;;;;;5093004;28;20070;-66
2023/01/26 01:20:25;;;;;;;22.63;18.95;;;2.90;99.90;;;;;;5093064;28;20476;-66
2023/01/26 01:22:51;;;;;;;27.73;20.42;;;3.00;99.90;;;;;;5092779;28;20052;-66
2023/01/26 01:25:16;;;;;;;26.15;19.55;;;3.00;99.90;;;;;;5093318;28;20049;-66
2023/01/26 01:27:42;;;;;;;20.60;17.13;;;2.90;99.90;;;;;;5092618;28;20024;-66
2023/01/26 01:30:08;;;;;;;25.05;20.33;;;2.90;99.90;;;;;;5092916;28;20051;-66
2023/01/26 01:32:35;;;;;;;23.95;19.08;;;3.10;99.90;;;;;;5092946;28;20031;-66
2023/01/26 01:35:01;;;;;;;22.30;18.52;;;3.00;99.90;;;;;;5093176;28;20020;-65
2023/01/26 01:37:29;;;;;;;24.45;19.67;;;3.00;99.90;;;;;;5092365;28;20024;-66
2023/01/26 01:39:54;;;;;;;29.10;23.42;;;3.00;99.90;;;;;;5092571;28;20028;-65
2023/01/26 01:42:20;;;;;;;24.38;19.25;;;2.90;99.90;;;;;;5092054;28;20506;-66
2023/01/26 01:45:24;;;;;;;21.33;17.98;;;3.00;99.90;;;;;;5092607;28;20032;-66
2023/01/26 01:47:59;;;;;;;24.70;18.27;;;3.00;99.90;;;;;;5092575;28;20058;-66
2023/01/26 01:50:25;;;;;;;23.92;18.30;;;2.90;99.90;;;;;;5092323;28;20442;-66
2023/01/26 01:52:54;;;;;;;24.02;18.20;;;2.90;99.90;;;;;;5092419;28;20039;-66
2023/01/26 01:55:19;;;;;;;23.38;18.30;;;2.90;99.90;;;;;;5091143;28;20032;-66
2023/01/26 01:57:54;;;;;;;25.45;18.23;;;2.80;99.90;;;;;;5092782;28;20065;-66
2023/01/26 02:00:22;;;;;;;25.50;19.05;;;2.80;99.90;;;;;;5092306;28;20471;-65
2023/01/26 02:03:15;;;;;;;27.58;21.13;;;2.80;99.90;;;;;;5092687;28;20507;-65
2023/01/26 02:05:53;;;;;;;31.50;24.10;;;2.90;99.90;;;;;;5091970;28;20738;-66
2023/01/26 02:08:23;;;;;;;28.20;21.42;;;3.00;99.90;;;;;;5092332;28;20129;-65
2023/01/26 02:10:51;;;;;;;25.65;19.35;;;2.90;99.90;;;;;;5092069;28;20048;-66
2023/01/26 02:13:18;;;;;;;28.17;20.60;;;3.00;99.90;;;;;;5092340;28;20361;-65
2023/01/26 02:15:44;;;;;;;25.65;20.08;;;2.90;99.90;;;;;;5092524;28;20020;-65
2023/01/26 02:18:10;;;;;;;25.35;19.38;;;2.90;99.90;;;;;;5092312;28;20038;-65
2023/01/26 02:20:39;;;;;;;26.95;20.08;;;2.90;99.90;;;;;;5091789;28;20514;-66
2023/01/26 02:23:22;;;;;;;25.73;19.60;;;2.90;99.90;;;;;;5092127;28;20476;-66
2023/01/26 02:25:51;;;;;;;27.33;20.02;;;2.90;99.90;;;;;;5092527;28;20040;-65
2023/01/26 02:28:19;;;;;;;28.20;20.75;;;2.90;99.90;;;;;;5092010;28;20031;-65
2023/01/26 02:30:45;;;;;;;28.92;21.35;;;2.90;99.90;;;;;;5092035;28;20101;-66
2023/01/26 02:33:17;;;;;;;25.83;19.98;;;2.90;99.90;;;;;;5091799;28;20016;-65
2023/01/26 02:35:43;;;;;;;26.70;20.45;;;2.90;99.90;;;;;;5092144;28;20395;-66
2023/01/26 02:38:09;;;;;;;30.42;20.95;;;2.80;99.90;;;;;;5091976;28;20024;-65
2023/01/26 02:41:07;;;;;;;28.77;21.58;;;2.80;99.90;;;;;;5091919;28;20512;-65
2023/01/26 02:43:33;;;;;;;27.73;20.85;;;2.80;99.90;;;;;;5091612;28;20546;-66
2023/01/26 02:45:58;;;;;;;30.65;21.52;;;2.90;99.90;;;;;;5091908;28;20016;-66
2023/01/26 02:51:09;;;;;;;29.30;21.30;;;2.80;99.90;;;;;;5092386;28;20100;-66
2023/01/26 02:53:34;;;;;;;27.60;21.02;;;2.90;99.90;;;;;;5091856;28;20512;-66
2023/01/26 02:56:00;;;;;;;27.83;21.00;;;3.00;99.90;;;;;;5094922;28;20020;-66
2023/01/26 02:58:26;;;;;;;27.65;20.30;;;3.00;99.90;;;;;;5095870;28;20061;-66
2023/01/26 03:00:52;;;;;;;31.17;22.17;;;3.10;99.90;;;;;;5096054;28;20028;-66
2023/01/26 03:03:24;;;;;;;28.55;21.20;;;3.00;99.90;;;;;;5095167;28;20120;-66
2023/01/26 03:05:50;;;;;;;27.80;21.10;;;2.90;99.90;;;;;;5095647;28;20476;-66
2023/01/26 03:08:17;;;;;;;52.72;38.53;;;2.90;99.90;;;;;;5095369;28;20028;-66
2023/01/26 03:10:42;;;;;;;45.95;35.65;;;3.00;99.90;;;;;;5095321;28;20129;-65
2023/01/26 03:13:08;;;;;;;39.13;29.25;;;3.10;99.90;;;;;;5095577;28;20024;-66
2023/01/26 03:15:41;;;;;;;40.15;28.63;;;3.00;99.90;;;;;;5095800;28;20599;-65
2023/01/26 03:29:26;;;;;;;30.60;21.48;;;3.00;99.90;;;;;;5095109;28;20061;-65
2023/01/26 03:31:52;;;;;;;31.45;22.95;;;3.00;99.90;;;;;;5094965;28;20471;-66
2023/01/26 03:34:19;;;;;;;27.48;21.33;;;2.90;99.90;;;;;;5095137;28;20020;-66
2023/01/26 03:36:45;;;;;;;27.65;20.33;;;3.00;99.90;;;;;;5094907;28;20082;-66
2023/01/26 03:41:06;;;;;;;31.52;21.63;;;3.00;99.90;;;;;;5095305;28;20028;-66
2023/01/26 03:58:23;;;;;;;32.63;23.02;;;3.10;99.90;;;;;;5094608;28;20055;-66
2023/01/26 04:00:49;;;;;;;27.95;21.77;;;3.10;99.90;;;;;;5094092;28;20028;-66
2023/01/26 04:08:45;;;;;;;30.23;22.95;;;3.00;99.90;;;;;;5094964;28;20077;-66
2023/01/26 04:11:12;;;;;;;26.83;20.90;;;3.00;99.90;;;;;;5094254;28;20127;-66
2023/01/26 04:21:51;;;;;;;26.65;19.13;;;3.00;99.90;;;;;;5094177;28;20077;-65
2023/01/26 04:24:20;;;;;;;27.70;19.30;;;3.00;99.90;;;;;;5094152;28;20028;-65
2023/01/26 04:26:46;;;;;;;28.17;19.60;;;2.90;99.90;;;;;;5093986;28;20502;-65
2023/01/26 04:29:13;;;;;;;26.25;19.17;;;3.00;99.90;;;;;;5094096;28;20024;-65
2023/01/26 04:31:41;;;;;;;25.20;19.23;;;2.90;99.90;;;;;;5093934;28;20377;-66
2023/01/26 04:34:11;;;;;;;27.17;19.13;;;2.90;99.90;;;;;;5094048;28;20062;-66
2023/01/26 04:36:37;;;;;;;25.48;18.65;;;2.80;99.90;;;;;;5093764;28;20027;-66
2023/01/26 04:39:03;;;;;;;25.25;18.88;;;3.00;99.90;;;;;;5093878;28;20483;-66
2023/01/26 04:41:30;;;;;;;25.92;19.55;;;3.00;99.90;;;;;;5093615;28;20040;-66
2023/01/26 04:43:56;;;;;;;25.33;19.23;;;2.90;99.90;;;;;;5093333;28;20085;-65
2023/01/26 04:46:22;;;;;;;25.58;19.02;;;2.90;99.90;;;;;;5094116;28;20277;-65
2023/01/26 04:48:47;;;;;;;25.48;19.55;;;2.90;99.90;;;;;;5093632;28;20491;-65
2023/01/26 04:51:19;;;;;;;25.35;19.05;;;3.00;99.90;;;;;;5093513;28;20074;-66
2023/01/26 04:53:46;;;;;;;25.27;19.20;;;3.10;99.90;;;;;;5093632;28;20032;-65
2023/01/26 04:56:28;;;;;;;25.83;19.23;;;3.10;99.90;;;;;;5093633;28;20504;-65
2023/01/26 04:58:57;;;;;;;26.15;19.58;;;3.10;99.90;;;;;;5093085;28;20036;-65
2023/01/26 05:01:23;;;;;;;26.88;19.05;;;3.00;99.90;;;;;;5093314;28;20546;-65
2023/01/26 05:03:48;;;;;;;24.15;19.13;;;2.90;99.90;;;;;;5093830;28;20043;-65
2023/01/26 05:06:14;;;;;;;27.48;20.23;;;2.90;99.90;;;;;;5093183;28;20035;-65
2023/01/26 05:08:40;;;;;;;25.27;19.65;;;2.80;99.90;;;;;;5093106;28;20077;-65
2023/01/26 05:11:06;;;;;;;26.88;20.85;;;2.90;99.90;;;;;;5093181;28;20052;-65
2023/01/26 05:13:31;;;;;;;25.83;20.55;;;2.90;99.90;;;;;;5093207;28;20032;-65
2023/01/26 05:15:57;;;;;;;27.98;21.00;;;2.90;99.90;;;;;;5093236;28;20020;-65
2023/01/26 05:18:23;;;;;;;27.08;20.75;;;2.90;99.90;;;;;;5092312;28;20084;-65
2023/01/26 05:20:48;;;;;;;26.30;20.02;;;2.90;99.90;;;;;;5092901;28;20388;-65
2023/01/26 05:23:14;;;;;;;25.17;19.98;;;2.90;99.90;;;;;;5093669;28;20012;-65
2023/01/26 05:25:40;;;;;;;24.70;19.52;;;3.00;99.90;;;;;;5092965;28;20027;-65
2023/01/26 05:28:06;;;;;;;25.85;19.52;;;3.10;99.90;;;;;;5092542;28;20106;-65
2023/01/26 05:30:31;;;;;;;26.17;19.75;;;3.00;99.90;;;;;;5092925;28;20031;-65
2023/01/26 05:33:04;;;;;;;29.05;21.23;;;2.90;99.90;;;;;;5093160;28;20507;-65
2023/01/26 05:35:30;;;;;;;31.60;22.23;;;2.80;99.90;;;;;;5093058;28;20024;-65
2023/01/26 05:37:56;;;;;;;25.77;20.17;;;2.90;99.90;;;;;;5092794;28;20039;-65
2023/01/26 05:40:23;;;;;;;25.83;20.02;;;2.80;99.90;;;;;;5092669;28;20400;-65
2023/01/26 05:42:49;;;;;;;27.05;20.50;;;2.90;99.90;;;;;;5092290;28;20052;-65
2023/01/26 05:45:15;;;;;;;28.45;20.80;;;2.80;99.90;;;;;;5092539;28;20165;-65
2023/01/26 05:47:43;;;;;;;30.25;22.05;;;2.80;99.90;;;;;;5092496;28;20028;-65
2023/01/26 05:50:09;;;;;;;30.10;21.23;;;2.80;99.90;;;;;;5092433;28;20020;-65
2023/01/26 05:52:35;;;;;;;26.88;21.00;;;2.80;99.90;;;;;;5092715;28;20040;-65
2023/01/26 05:55:02;;;;;;;29.25;20.92;;;2.90;99.90;;;;;;5092557;28;20024;-65
2023/01/26 05:57:27;;;;;;;26.10;20.20;;;3.10;99.90;;;;;;5092032;28;20029;-65
2023/01/26 05:59:53;;;;;;;26.02;20.13;;;3.10;99.90;;;;;;5092418;28;20035;-65
2023/01/26 06:02:19;;;;;;;25.75;20.63;;;3.10;99.90;;;;;;5092865;28;20504;-65
2023/01/26 06:04:44;;;;;;;30.02;22.10;;;3.10;99.90;;;;;;5092426;28;20377;-65
2023/01/26 06:07:12;;;;;;;29.38;22.23;;;3.00;99.90;;;;;;5092223;28;20027;-65
2023/01/26 06:09:38;;;;;;;37.40;21.50;;;2.90;99.90;;;;;;5092397;28;20067;-65
2023/01/26 06:12:05;;;;;;;29.17;22.88;;;2.80;99.90;;;;;;5092083;28;20059;-65
2023/01/26 06:14:30;;;;;;;31.95;22.92;;;2.90;99.90;;;;;;5092451;28;20024;-65
2023/01/26 06:16:56;;;;;;;29.60;22.42;;;2.80;99.90;;;;;;5092145;28;20028;-65
2023/01/26 06:19:22;;;;;;;29.65;22.33;;;2.80;99.90;;;;;;5092783;28;20503;-65
2023/01/26 06:21:47;;;;;;;39.40;28.40;;;2.80;99.90;;;;;;5092150;28;20127;-65
2023/01/26 06:24:13;;;;;;;35.10;27.73;;;2.80;99.90;;;;;;5092136;28;20028;-65
2023/01/26 06:26:39;;;;;;;35.78;25.65;;;2.80;99.90;;;;;;5091895;28;20054;-65
2023/01/26 06:29:06;;;;;;;34.95;25.80;;;2.80;99.90;;;;;;5094084;28;20502;-65
2023/01/26 06:31:31;;;;;;;33.03;23.27;;;2.90;99.90;;;;;;5096606;28;20514;-65
2023/01/26 06:33:57;;;;;;;31.42;22.15;;;3.00;99.90;;;;;;5096320;28;20024;-64
2023/01/26 06:36:23;;;;;;;34.53;24.27;;;2.90;99.90;;;;;;5096306;28;20032;-65
2023/01/26 06:38:51;;;;;;;35.80;25.02;;;3.00;99.90;;;;;;5096493;28;20445;-65
2023/01/26 06:41:17;;;;;;;33.33;22.63;;;2.90;99.90;;;;;;5095815;28;20126;-65
2023/01/26 06:43:45;;;;;;;34.10;23.77;;;2.90;99.90;;;;;;5096033;28;20383;-65
2023/01/26 06:46:11;;;;;;;36.47;24.75;;;2.90;99.90;;;;;;5095804;28;20029;-65
2023/01/26 06:48:37;;;;;;;32.85;24.38;;;2.90;99.90;;;;;;5095988;28;20033;-65
2023/01/26 06:51:15;;;;;;;33.00;23.67;;;2.90;99.90;;;;;;5096041;28;20388;-65
2023/01/26 06:53:57;;;;;;;32.17;24.77;;;2.90;99.90;;;;;;5095819;28;20035;-65
2023/01/26 06:56:24;;;;;;;32.63;24.23;;;3.00;99.90;;;;;;5095424;28;20550;-65
2023/01/26 06:58:50;;;;;;;55.25;37.70;;;3.00;99.90;;;;;;5095706;28;20080;-65
2023/01/26 07:01:21;;;;;;;67.13;46.05;;;3.00;99.90;;;;;;5095891;28;20040;-65
2023/01/26 07:03:47;;;;;;;55.92;35.20;;;3.00;99.90;;;;;;5095620;28;20031;-65
2023/01/26 07:06:13;;;;;;;53.08;36.38;;;2.90;99.90;;;;;;5095561;28;20141;-65
2023/01/26 07:08:39;;;;;;;59.10;41.22;;;3.00;99.90;;;;;;5094971;28;20482;-64
2023/01/26 07:11:06;;;;;;;46.58;34.60;;;2.90;99.90;;;;;;5095391;28;20067;-65
2023/01/26 07:13:32;;;;;;;35.33;26.48;;;2.80;99.90;;;;;;5095533;28;20039;-65
2023/01/26 07:16:01;;;;;;;37.85;28.20;;;2.80;99.90;;;;;;5095356;28;20091;-64
2023/01/26 07:18:27;;;;;;;41.53;31.55;;;2.90;99.90;;;;;;5095439;28;20105;-65
2023/01/26 07:20:53;;;;;;;44.47;32.03;;;3.00;99.90;;;;;;5095298;28;20036;-64
2023/01/26 07:23:18;;;;;;;41.88;28.98;;;2.80;99.90;;;;;;5095420;28;20484;-64
2023/01/26 07:25:44;;;;;;;37.88;26.50;;;2.70;99.90;;;;;;5095340;28;20027;-65
2023/01/26 07:28:10;;;;;;;36.60;26.77;;;2.70;99.90;;;;;;5095082;28;20024;-64
2023/01/26 07:30:36;;;;;;;39.33;26.98;;;2.70;99.90;;;;;;5095031;28;20110;-65
2023/01/26 07:33:02;;;;;;;39.75;27.63;;;2.80;99.90;;;;;;5095195;28;20048;-64
2023/01/26 07:35:28;;;;;;;38.38;26.48;;;2.80;99.90;;;;;;5095302;28;20457;-64
2023/01/26 07:37:57;;;;;;;42.28;27.67;;;2.80;99.90;;;;;;5094737;28;20024;-64
2023/01/26 07:40:23;;;;;;;48.67;28.50;;;2.70;99.90;;;;;;5094312;28;20028;-63
2023/01/26 07:42:48;;;;;;;43.10;28.88;;;2.80;99.90;;;;;;5094930;28;20101;-63
2023/01/26 07:45:16;;;;;;;37.50;26.42;;;2.80;99.90;;;;;;5094769;28;20181;-65
2023/01/26 07:47:43;;;;;;;42.53;28.27;;;2.80;99.90;;;;;;5094732;28;20025;-64
2023/01/26 07:50:10;;;;;;;43.75;30.35;;;2.70;99.90;;;;;;5093736;28;20028;-64
2023/01/26 07:52:37;;;;;;;40.00;28.50;;;2.90;99.90;;;;;;5093845;28;20024;-64
2023/01/26 07:55:03;;;;;;;36.83;25.52;;;2.90;99.90;;;;;;5094337;28;20031;-64
2023/01/26 07:57:29;;;;;;;36.97;24.80;;;2.90;99.90;;;;;;5094952;28;20024;-64
2023/01/26 07:59:54;;;;;;;32.63;24.50;;;2.90;99.90;;;;;;5094430;28;20040;-64
2023/01/26 08:02:20;;;;;;;45.30;31.98;;;2.90;99.90;;;;;;5094618;28;20055;-64
2023/01/26 08:04:46;;;;;;;37.15;26.23;;;2.90;99.90;;;;;;5094400;28;20036;-64
2023/01/26 08:07:11;;;;;;;33.63;23.33;;;2.90;99.90;;;;;;5093921;28;20557;-64
2023/01/26 08:09:37;;;;;;;33.55;23.38;;;2.90;99.90;;;;;;5094450;28;20052;-64
2023/01/26 08:12:03;;;;;;;34.60;23.58;;;2.90;99.90;;;;;;5094242;28;20035;-64
2023/01/26 08:14:29;;;;;;;34.10;23.48;;;2.90;99.90;;;;;;5094084;28;20028;-63
2023/01/26 08:16:55;;;;;;;43.00;25.75;;;2.90;99.90;;;;;;5093558;28;20021;-64
2023/01/26 08:19:21;;;;;;;40.17;26.25;;;3.00;99.90;;;;;;5093306;28;20028;-64
2023/01/26 08:21:46;;;;;;;38.28;27.02;;;3.00;99.90;;;;;;5093236;28;20039;-64
2023/01/26 08:24:12;;;;;;;39.70;26.92;;;3.00;99.90;;;;;;5093855;28;20061;-64
2023/01/26 08:26:38;;;;;;;34.83;23.90;;;3.00;99.90;;;;;;5094318;28;20033;-63
2023/01/26 08:29:03;;;;;;;33.58;24.58;;;2.90;99.90;;;;;;5093843;28;20093;-64
2023/01/26 08:31:29;;;;;;;41.22;26.48;;;2.80;99.90;;;;;;5093868;28;20036;-63
2023/01/26 08:33:55;;;;;;;37.50;25.95;;;2.90;99.90;;;;;;5094028;28;20020;-63
2023/01/26 08:36:22;;;;;;;43.92;28.60;;;2.90;99.90;;;;;;5093364;28;20388;-61
2023/01/26 08:38:47;;;;;;;37.50;25.00;;;3.00;99.90;;;;;;5093780;28;20103;-61
2023/01/26 08:41:13;;;;;;;39.25;24.27;;;2.90;99.90;;;;;;5092698;28;20119;-62
2023/01/26 08:43:39;;;;;;;36.20;25.13;;;2.90;99.90;;;;;;5093202;28;20059;-62
2023/01/26 08:46:05;;;;;;;36.47;24.10;;;3.00;99.90;;;;;;5093109;28;20028;-62
2023/01/26 08:48:31;;;;;;;40.15;26.23;;;3.00;99.90;;;;;;5093482;28;20028;-63
2023/01/26 08:50:59;;;;;;;35.83;25.13;;;3.10;99.90;;;;;;5093532;28;20060;-62
2023/01/26 08:53:25;;;;;;;34.65;23.40;;;3.30;99.90;;;;;;5092424;28;20078;-62
2023/01/26 08:55:51;;;;;;;38.90;25.33;;;3.30;99.90;;;;;;5093583;28;20051;-62
2023/01/26 08:58:19;;;;;;;33.38;22.75;;;3.30;99.90;;;;;;5093522;28;20056;-62
2023/01/26 09:00:44;;;;;;;33.65;24.17;;;3.20;99.90;;;;;;5093454;28;20392;-62
2023/01/26 09:03:10;;;;;;;343.50;299.75;;;3.30;99.90;;;;;;5093529;28;20031;-62
2023/01/26 09:05:38;;;;;;;51.40;39.33;;;3.40;99.90;;;;;;5093010;28;20138;-62
2023/01/26 09:08:05;;;;;;;35.58;24.20;;;3.50;99.90;;;;;;5092999;28;20089;-62
2023/01/26 09:10:32;;;;;;;42.95;32.47;;;3.50;99.90;;;;;;5093214;28;20067;-63
2023/01/26 09:12:58;;;;;;;35.40;24.33;;;3.50;99.90;;;;;;5093458;28;20039;-63
2023/01/26 09:15:25;;;;;;;31.85;22.65;;;3.60;99.90;;;;;;5093240;28;20439;-62
2023/01/26 09:17:51;;;;;;;34.13;23.95;;;3.60;99.90;;;;;;5093227;28;20042;-62
2023/01/26 09:20:18;;;;;;;33.75;22.27;;;3.50;99.90;;;;;;5092548;28;20027;-62
2023/01/26 09:22:44;;;;;;;35.10;23.85;;;3.60;99.90;;;;;;5092961;28;20047;-62
2023/01/26 09:25:10;;;;;;;38.67;23.92;;;3.60;99.90;;;;;;5093418;28;20020;-62
2023/01/26 09:27:36;;;;;;;33.88;23.13;;;3.50;99.90;;;;;;5092682;28;20404;-62
2023/01/26 09:30:03;;;;;;;36.67;23.45;;;3.40;99.90;;;;;;5092729;28;20032;-62
2023/01/26 09:32:28;;;;;;;34.08;23.58;;;3.50;99.90;;;;;;5092811;28;20024;-62
2023/01/26 09:34:55;;;;;;;33.63;23.17;;;3.50;99.90;;;;;;5092394;28;20043;-62
2023/01/26 09:37:21;;;;;;;36.95;24.85;;;3.60;99.90;;;;;;5092623;28;20077;-62
2023/01/26 09:39:47;;;;;;;35.15;23.77;;;3.60;99.90;;;;;;5092438;28;20520;-62
2023/01/26 09:42:50;;;;;;;35.40;22.60;;;3.40;99.90;;;;;;5092601;28;20051;-62
2023/01/26 09:45:59;;;;;;;35.42;24.38;;;3.40;99.90;;;;;;5033385;28;20135;-63
2023/01/26 09:48:46;;;;;;;34.85;23.42;;;3.50;99.90;;;;;;5049404;28;20040;-62
2023/01/26 09:51:37;;;;;;;34.65;22.55;;;3.50;99.90;;;;;;5050042;28;20025;-62
2023/01/26 09:54:24;;;;;;;32.03;22.52;;;3.40;99.90;;;;;;5043512;28;20045;-63
2023/01/26 09:56:49;;;;;;;34.60;23.75;;;3.30;99.90;;;;;;5049405;28;20112;-62
2023/01/26 09:59:33;;;;;;;57.70;43.42;;;3.40;99.90;;;;;;5050317;28;20124;-62
2023/01/26 10:02:36;;;;;;;44.72;29.35;;;3.50;99.90;;;;;;5050015;28;20077;-62
2023/01/26 10:05:15;;;;;;;62.78;44.03;;;3.40;99.90;;;;;;5049272;28;20190;-60
2023/01/26 10:07:44;;;;;;;33.38;20.80;;;3.50;99.90;;;;;;5032766;28;20032;-61
2023/01/26 10:10:21;;;;;;;33.70;21.92;;;3.30;99.90;;;;;;5049435;28;20052;-62
2023/01/26 10:12:50;;;;;;;31.95;21.67;;;3.40;99.90;;;;;;5050194;28;20021;-62
2023/01/26 10:15:30;;;;;;;30.15;19.58;;;3.30;99.90;;;;;;5049673;28;20544;-62
2023/01/26 10:18:01;;;;;;;29.80;18.77;;;3.20;99.90;;;;;;5049116;28;20462;-61
2023/01/26 10:20:34;;;;;;;32.92;19.55;;;3.20;99.90;;;;;;5049573;28;20026;-60
2023/01/26 10:23:15;;;;;;;31.42;19.50;;;3.30;99.90;;;;;;5087283;28;20111;-62
2023/01/26 10:25:43;;;;;;;43.58;29.85;;;3.20;99.90;;;;;;5092030;28;20464;-62
2023/01/26 10:28:44;;;;;;;40.10;26.45;;;3.40;99.90;;;;;;5092363;28;20077;-62
2023/01/26 10:31:19;;;;;;;29.58;18.42;;;3.40;99.90;;;;;;5083013;28;20520;-62
2023/01/26 10:33:53;;;;;;;28.80;18.70;;;3.10;99.90;;;;;;5091608;28;20034;-62
2023/01/26 10:36:19;;;;;;;29.02;18.48;;;3.30;99.90;;;;;;5091918;28;20103;-62
2023/01/26 10:38:45;;;;;;;32.17;21.25;;;3.30;99.90;;;;;;5091843;28;20054;-62
2023/01/26 10:41:17;;;;;;;29.00;19.27;;;3.40;99.90;;;;;;5091872;28;20028;-62
2023/01/26 10:43:53;;;;;;;32.67;21.38;;;3.30;99.90;;;;;;5091778;28;20035;-62
2023/01/26 10:46:43;;;;;;;25.05;17.50;;;3.30;99.90;;;;;;5091890;28;20028;-61
2023/01/26 10:49:10;;;;;;;24.75;17.70;;;3.10;99.90;;;;;;5091636;28;20028;-62
2023/01/26 10:51:43;;;;;;;25.45;17.55;;;3.20;99.90;;;;;;5092085;28;20044;-62
2023/01/26 10:54:26;;;;;;;28.73;22.20;;;3.10;99.90;;;;;;5091628;28;20024;-61
2023/01/26 10:57:13;;;;;;;34.33;29.35;;;3.10;99.90;;;;;;5091677;28;20145;-62
2023/01/26 10:59:47;;;;;;;23.33;18.00;;;3.20;99.90;;;;;;5091383;28;20060;-62
2023/01/26 11:02:16;;;;;;;23.23;18.98;;;3.00;99.90;;;;;;5091893;28;20103;-62
2023/01/26 11:05:05;;;;;;;46.85;40.63;;;3.10;99.90;;;;;;5091618;28;20021;-62
2023/01/26 11:07:42;;;;;;;24.45;19.60;;;3.30;99.90;;;;;;5091159;28;20036;-62
2023/01/26 11:10:23;;;;;;;31.30;25.90;;;3.20;99.90;;;;;;5091496;28;20059;-62
2023/01/26 11:12:50;;;;;;;24.90;21.60;;;3.30;99.90;;;;;;5091585;28;20067;-62
2023/01/26 11:15:26;;;;;;;23.95;19.30;;;3.30;99.90;;;;;;5091933;28;20028;-62
2023/01/26 11:18:14;;;;;;;21.02;17.65;;;3.20;99.90;;;;;;5095621;28;20020;-62
2023/01/26 11:21:04;;;;;;;23.63;18.42;;;3.10;99.90;;;;;;5095157;28;20043;-62
2023/01/26 11:23:50;;;;;;;227.13;188.70;;;3.20;99.90;;;;;;5095026;28;20027;-62
2023/01/26 11:26:37;;;;;;;24.58;19.98;;;3.10;99.90;;;;;;5095194;28;20024;-62
2023/01/26 11:29:31;;;;;;;20.00;16.55;;;3.10;99.90;;;;;;5095181;28;20024;-62
2023/01/26 11:32:29;;;;;;;19.17;16.35;;;2.80;99.90;;;;;;5094707;28;20024;-62
2023/01/26 11:35:43;;;;;;;19.35;15.57;;;2.70;99.90;;;;;;5095054;28;20043;-62
2023/01/26 11:38:34;;;;;;;19.13;16.47;;;2.80;99.90;;;;;;5052077;28;20493;-62
2023/01/26 11:41:02;;;;;;;38.60;34.47;;;2.90;99.90;;;;;;5051997;28;20071;-62
2023/01/26 11:44:06;;;;;;;21.02;18.30;;;3.10;99.90;;;;;;5052571;28;20112;-63
2023/01/26 11:46:55;;;;;;;21.33;18.02;;;3.20;99.90;;;;;;5050363;28;20028;-62
2023/01/26 11:49:44;;;;;;;17.80;15.93;;;3.20;99.90;;;;;;5052258;28;20052;-62
2023/01/26 11:52:34;;;;;;;54.80;45.00;;;3.00;99.90;;;;;;5052570;28;20036;-62
2023/01/26 11:55:24;;;;;;;21.25;18.98;;;3.00;99.90;;;;;;5052335;28;20458;-62
2023/01/26 11:58:31;;;;;;;15.75;14.15;;;3.00;99.90;;;;;;5052149;28;20123;-62
2023/01/26 12:01:04;;;;;;;18.42;16.55;;;3.00;99.90;;;;;;5051569;28;20048;-62
2023/01/26 12:03:33;;;;;;;19.05;17.02;;;3.00;99.90;;;;;;5035676;28;20025;-62
2023/01/26 12:06:06;;;;;;;17.08;15.52;;;3.00;99.90;;;;;;5051539;28;20547;-62
2023/01/26 12:08:41;;;;;;;14.05;12.65;;;3.00;99.90;;;;;;5051712;28;20043;-62
2023/01/26 12:11:28;;;;;;;15.25;13.85;;;2.80;99.90;;;;;;5051678;28;20520;-63
2023/01/26 12:14:03;;;;;;;25.73;22.98;;;3.00;99.90;;;;;;5056476;28;20393;-62
2023/01/26 12:16:58;;;;;;;18.33;15.80;;;3.10;99.90;;;;;;5074443;28;20453;-62
2023/01/26 12:19:51;;;;;;;16.48;14.77;;;3.00;99.90;;;;;;5073807;28;20036;-62
2023/01/26 12:22:46;;;;;;;18.97;17.03;;;3.00;99.90;;;;;;5074364;28;20389;-62
2023/01/26 12:25:37;;;;;;;17.25;14.88;;;3.10;99.90;;;;;;5071835;28;20043;-62
2023/01/26 12:28:21;;;;;;;13.10;11.80;;;2.90;99.90;;;;;;5070877;28;20078;-62
2023/01/26 12:30:56;;;;;;;;;;;2.90;99.90;;;;;;5071863;28;20036;-63
2023/01/26 12:33:23;;;;;;;19.85;17.67;;;2.90;99.90;;;;;;5071278;28;20314;-62
2023/01/26 12:36:19;;;;;;;14.88;13.35;;;3.00;99.90;;;;;;5071293;28;20111;-62
2023/01/26 12:38:45;;;;;;;15.70;13.63;;;2.80;99.90;;;;;;5054554;28;20506;-62
2023/01/26 12:41:16;;;;;;;15.00;13.48;;;2.80;99.90;;;;;;5071372;28;20436;-62
2023/01/26 12:43:47;;;;;;;15.73;12.93;;;2.80;99.90;;;;;;5071256;28;20043;-62
2023/01/26 12:46:14;;;;;;;13.80;12.32;;;2.70;99.90;;;;;;5071086;28;20127;-62
2023/01/26 12:48:56;;;;;;;14.30;12.80;;;2.60;99.90;;;;;;5070950;28;20032;-62
2023/01/26 12:51:40;;;;;;;13.98;12.40;;;2.60;99.90;;;;;;5071171;28;20028;-62
2023/01/26 12:54:17;;;;;;;14.25;12.85;;;2.70;99.90;;;;;;5071020;28;20032;-62
2023/01/26 12:56:56;;;;;;;14.95;13.32;;;2.60;99.90;;;;;;5070579;28;20497;-62
2023/01/26 12:59:35;;;;;;;14.70;13.20;;;2.60;99.90;;;;;;5071333;28;20107;-62
2023/01/26 13:02:19;;;;;;;20.23;16.60;;;2.60;99.90;;;;;;5061180;28;20493;-62
2023/01/26 13:04:46;;;;;;;14.80;13.32;;;2.80;99.90;;;;;;5053084;28;20189;-62
2023/01/26 13:07:47;;;;;;;15.55;13.98;;;2.70;99.90;;;;;;5059942;28;20065;-62
2023/01/26 13:10:16;;;;;;;16.75;15.13;;;2.60;99.90;;;;;;5070409;28;20561;-62
2023/01/26 13:12:54;;;;;;;16.95;15.15;;;2.60;99.90;;;;;;5070157;28;20485;-62
2023/01/26 13:15:22;;;;;;;18.13;16.35;;;2.50;99.90;;;;;;5070601;28;20132;-62
2023/01/26 13:17:50;;;;;;;18.08;16.17;;;2.70;99.90;;;;;;5070258;28;20378;-62
2023/01/26 13:20:25;;;;;;;21.60;19.30;;;2.80;99.90;;;;;;5070375;28;20519;-62
2023/01/26 13:22:53;;;;;;;18.52;16.50;;;2.50;99.90;;;;;;5070365;28;20025;-62
2023/01/26 13:25:31;;;;;;;19.70;17.17;;;2.50;99.90;;;;;;5070678;28;20033;-62
2023/01/26 13:28:02;;;;;;;20.85;17.35;;;2.60;99.90;;;;;;5069843;28;20024;-62
2023/01/26 13:30:38;;;;;;;16.70;14.88;;;2.60;99.90;;;;;;5070258;28;20135;-62
2023/01/26 13:33:22;;;;;;;15.50;13.90;;;2.60;99.90;;;;;;5070142;28;20401;-62
2023/01/26 13:35:50;;;;;;;16.70;14.95;;;2.60;99.90;;;;;;5070649;28;20366;-62
2023/01/26 13:38:32;;;;;;;14.50;12.80;;;2.60;99.90;;;;;;5069693;28;20111;-62
2023/01/26 13:40:57;;;;;;;13.93;12.40;;;2.60;99.90;;;;;;5069949;28;20404;-62
2023/01/26 13:43:53;;;;;;;13.25;11.95;;;2.50;99.90;;;;;;5070549;28;20033;-63